Time;durP1;ratioP1;P1;durP2;ratioP2;P2;SDS_P1;SDS_P2;PMS_P1;PMS_P2;Temp;Humidity;BMP_temperature;BMP_pressure;BME280_temperature;BME280_humidity;BME280_pressure;Samples;Min_cycle;Max_cycle;Signal;HPM_P1;HPM_P2
2022/12/02 00:05:32;;;;;;;1.38;0.68;;;;;;;;;;20919385;28;20045;-60
2022/12/02 00:15:34;;;;;;;1.40;0.60;;;;;;;;;;20919133;28;20099;-60
2022/12/02 00:25:36;;;;;;;2.65;0.90;;;;;;;;;;20918143;28;20439;-60
2022/12/02 00:35:39;;;;;;;2.88;0.90;;;;;;;;;;20916605;28;20061;-60
2022/12/02 00:56:01;;;;;;;2.17;1.00;;;;;;;;;;20915317;28;20059;-61
2022/12/02 01:06:04;;;;;;;3.22;0.95;;;;;;;;;;20915297;28;20550;-59
2022/12/02 01:16:06;;;;;;;1.50;0.90;;;;;;;;;;20914111;28;20053;-60
2022/12/02 01:26:08;;;;;;;1.75;1.00;;;;;;;;;;20913957;28;20057;-60
2022/12/02 01:36:11;;;;;;;2.63;1.10;;;;;;;;;;20913214;28;20045;-60
2022/12/02 01:46:14;;;;;;;2.63;1.10;;;;;;;;;;20912948;28;20049;-60
2022/12/02 01:56:16;;;;;;;3.25;1.20;;;;;;;;;;20915391;28;20048;-59
2022/12/02 02:06:18;;;;;;;1.80;1.10;;;;;;;;;;20929041;28;20413;-59
2022/12/02 02:16:21;;;;;;;3.85;1.00;;;;;;;;;;20927615;28;20052;-60
2022/12/02 02:26:25;;;;;;;1.45;0.90;;;;;;;;;;20926923;28;20060;-59
2022/12/02 02:36:28;;;;;;;2.92;1.08;;;;;;;;;;20926353;28;20088;-59
2022/12/02 02:46:32;;;;;;;2.33;1.13;;;;;;;;;;20925856;28;20457;-59
2022/12/02 02:56:35;;;;;;;2.67;0.88;;;;;;;;;;20924736;28;20045;-60
2022/12/02 03:06:39;;;;;;;2.63;1.00;;;;;;;;;;20923725;28;20044;-60
2022/12/02 03:16:43;;;;;;;5.85;1.23;;;;;;;;;;20923951;28;20469;-61
2022/12/02 03:26:47;;;;;;;3.25;1.20;;;;;;;;;;20921979;28;20052;-59
2022/12/02 03:36:51;;;;;;;2.30;1.30;;;;;;;;;;20921514;28;20056;-60
2022/12/02 03:46:55;;;;;;;3.67;1.35;;;;;;;;;;20920978;28;20086;-60
2022/12/02 03:56:59;;;;;;;2.10;1.15;;;;;;;;;;20919864;28;20052;-60
2022/12/02 04:07:02;;;;;;;3.25;1.63;;;;;;;;;;20920353;28;20099;-60
2022/12/02 04:17:06;;;;;;;2.38;1.30;;;;;;;;;;20919279;28;20594;-60
2022/12/02 04:27:28;;;;;;;3.67;1.50;;;;;;;;;;20917992;28;20048;-59
2022/12/02 04:37:54;;;;;;;3.55;1.60;;;;;;;;;;20918147;28;20508;-60
2022/12/02 04:48:15;;;;;;;2.38;1.27;;;;;;;;;;20917361;28;20460;-61
2022/12/02 04:58:20;;;;;;;2.05;1.10;;;;;;;;;;20915494;28;20045;-61
2022/12/02 05:08:26;;;;;;;2.58;1.40;;;;;;;;;;20914596;28;20136;-60
2022/12/02 05:18:30;;;;;;;2.58;1.20;;;;;;;;;;20914959;28;20052;-60
2022/12/02 05:28:33;;;;;;;2.90;1.20;;;;;;;;;;20913214;28;20489;-60
2022/12/02 05:38:35;;;;;;;3.30;1.23;;;;;;;;;;20912337;28;20041;-60
2022/12/02 05:48:37;;;;;;;3.92;1.40;;;;;;;;;;20912424;28;20128;-60
2022/12/02 05:58:39;;;;;;;4.72;1.58;;;;;;;;;;20911864;28;20462;-60
2022/12/02 06:08:42;;;;;;;3.17;1.60;;;;;;;;;;20911624;28;20063;-59
2022/12/02 06:18:44;;;;;;;3.22;1.80;;;;;;;;;;20911481;28;20049;-60
2022/12/02 06:28:47;;;;;;;3.25;1.40;;;;;;;;;;20910836;28;20103;-59
2022/12/02 06:38:51;;;;;;;4.78;2.15;;;;;;;;;;20910260;28;20442;-60
2022/12/02 06:48:53;;;;;;;3.75;2.30;;;;;;;;;;20922778;28;20053;-59
2022/12/02 06:58:58;;;;;;;4.63;2.47;;;;;;;;;;20925866;28;20515;-59
2022/12/02 07:09:02;;;;;;;4.10;2.30;;;;;;;;;;20923895;28;20053;-59
2022/12/02 07:19:08;;;;;;;3.58;2.22;;;;;;;;;;20923434;28;20059;-60
2022/12/02 07:29:13;;;;;;;3.67;2.70;;;;;;;;;;20904477;28;20135;-59
2022/12/02 07:39:15;;;;;;;5.55;2.22;;;;;;;;;;20922520;28;20135;-60
2022/12/02 07:49:17;;;;;;;8.75;2.78;;;;;;;;;;20921233;28;20118;-60
2022/12/02 07:59:19;;;;;;;6.25;2.50;;;;;;;;;;20918817;28;20056;-59
2022/12/02 08:09:21;;;;;;;6.85;2.58;;;;;;;;;;20919063;28;20056;-61
2022/12/02 08:19:24;;;;;;;5.40;2.22;;;;;;;;;;20917843;28;20140;-60
2022/12/02 08:29:27;;;;;;;7.30;2.50;;;;;;;;;;20917190;28;20060;-61
2022/12/02 08:39:29;;;;;;;8.45;2.90;;;;;;;;;;20916944;28;20048;-60
2022/12/02 08:49:32;;;;;;;7.55;1.95;;;;;;;;;;20917055;28;20496;-62
2022/12/02 08:59:34;;;;;;;5.72;2.13;;;;;;;;;;20914834;28;20124;-60
2022/12/02 09:09:36;;;;;;;3.70;2.05;;;;;;;;;;20913473;28;20057;-64
2022/12/02 09:19:39;;;;;;;8.85;4.10;;;;;;;;;;20928805;28;20052;-63
2022/12/02 09:29:41;;;;;;;8.10;3.45;;;;;;;;;;20993175;28;20052;-59
2022/12/02 09:39:44;;;;;;;10.13;3.13;;;;;;;;;;20991101;28;20044;-63
2022/12/02 09:49:47;;;;;;;4.97;3.08;;;;;;;;;;20991390;28;20048;-65
2022/12/02 09:59:49;;;;;;;5.30;3.30;;;;;;;;;;20993687;28;20048;-64
2022/12/02 10:09:51;;;;;;;7.15;3.28;;;;;;;;;;20993084;28;20052;-63
2022/12/02 10:19:53;;;;;;;7.95;3.75;;;;;;;;;;20999804;28;20053;-60
2022/12/02 10:30:14;;;;;;;7.95;3.83;;;;;;;;;;21048830;28;20067;-61
2022/12/02 10:40:20;;;;;;;5.40;3.42;;;;;;;;;;21091567;28;20122;-61
2022/12/02 10:50:23;;;;;;;7.68;3.58;;;;;;;;;;21091491;28;20048;-62
2022/12/02 11:00:26;;;;;;;8.40;4.18;;;;;;;;;;21091180;28;20079;-61
2022/12/02 11:10:35;;;;;;;8.63;4.50;;;;;;;;;;21089768;28;20071;-60
2022/12/02 11:20:38;;;;;;;8.95;4.22;;;;;;;;;;21089102;28;20048;-60
2022/12/02 11:30:40;;;;;;;8.57;5.15;;;;;;;;;;21087075;28;20438;-62
2022/12/02 11:40:43;;;;;;;9.38;4.15;;;;;;;;;;21050346;28;20072;-64
2022/12/02 11:50:45;;;;;;;13.30;5.70;;;;;;;;;;20984542;28;20476;-60
2022/12/02 12:00:59;;;;;;;11.75;5.05;;;;;;;;;;21001959;28;20072;-59
2022/12/02 12:11:21;;;;;;;8.55;4.88;;;;;;;;;;21000055;28;20424;-59
2022/12/02 12:21:32;;;;;;;7.15;4.30;;;;;;;;;;21000199;28;20543;-59
2022/12/02 12:31:34;;;;;;;7.60;4.85;;;;;;;;;;20998315;28;20056;-59
2022/12/02 12:41:37;;;;;;;13.07;6.28;;;;;;;;;;20998049;28;20045;-59
2022/12/02 12:51:39;;;;;;;7.63;5.20;;;;;;;;;;20997692;28;20492;-60
2022/12/02 13:01:42;;;;;;;9.27;5.00;;;;;;;;;;20997731;28;20124;-59
2022/12/02 13:11:44;;;;;;;8.30;4.03;;;;;;;;;;20996155;28;20408;-61
2022/12/02 13:21:47;;;;;;;7.55;4.45;;;;;;;;;;20996965;28;20122;-59
2022/12/02 13:31:49;;;;;;;5.97;3.80;;;;;;;;;;20995221;28;20057;-60
2022/12/02 13:41:51;;;;;;;5.03;2.97;;;;;;;;;;20996898;28;20044;-60
2022/12/02 13:51:53;;;;;;;5.00;3.17;;;;;;;;;;20998366;28;20059;-64
2022/12/02 14:01:55;;;;;;;7.65;3.92;;;;;;;;;;21011792;28;20492;-61
2022/12/02 14:11:57;;;;;;;6.50;3.63;;;;;;;;;;21010576;28;20537;-60
2022/12/02 14:21:59;;;;;;;6.68;4.05;;;;;;;;;;21009883;28;20109;-58
2022/12/02 14:32:00;;;;;;;7.70;3.65;;;;;;;;;;21007998;28;20136;-58
2022/12/02 14:42:02;;;;;;;5.57;3.28;;;;;;;;;;21006611;28;20124;-60
2022/12/02 14:52:04;;;;;;;7.38;3.30;;;;;;;;;;21006924;28;20052;-59
2022/12/02 15:02:08;;;;;;;4.95;2.97;;;;;;;;;;21005101;28;20133;-59
2022/12/02 15:12:10;;;;;;;6.53;3.85;;;;;;;;;;21005891;28;20048;-59
2022/12/02 15:22:12;;;;;;;5.95;3.42;;;;;;;;;;20987878;28;20045;-60
2022/12/02 15:32:14;;;;;;;6.60;3.35;;;;;;;;;;21003437;28;20496;-59
2022/12/02 15:42:16;;;;;;;6.25;3.55;;;;;;;;;;21002884;28;20044;-60
2022/12/02 15:52:18;;;;;;;9.65;3.80;;;;;;;;;;21002627;28;20055;-58
2022/12/02 16:02:20;;;;;;;14.07;4.90;;;;;;;;;;21002273;28;20080;-60
2022/12/02 16:12:22;;;;;;;6.93;4.25;;;;;;;;;;21001659;28;20052;-59
2022/12/02 16:22:24;;;;;;;7.75;4.97;;;;;;;;;;21000290;28;20075;-59
2022/12/02 16:32:26;;;;;;;6.95;4.60;;;;;;;;;;20998968;28;20056;-57
2022/12/02 16:42:39;;;;;;;6.65;4.15;;;;;;;;;;20982859;28;20049;-57
2022/12/02 16:52:43;;;;;;;5.32;2.95;;;;;;;;;;20979922;28;20048;-59
2022/12/02 17:02:45;;;;;;;10.05;4.43;;;;;;;;;;20997430;28;20049;-58
2022/12/02 17:12:47;;;;;;;5.82;3.00;;;;;;;;;;20996914;28;20454;-59
2022/12/02 17:22:49;;;;;;;21.75;8.30;;;;;;;;;;20994975;28;20087;-58
2022/12/02 17:32:51;;;;;;;11.88;5.13;;;;;;;;;;20993542;28;20063;-59
2022/12/02 17:42:53;;;;;;;8.63;4.03;;;;;;;;;;20993822;28;20381;-59
2022/12/02 17:52:56;;;;;;;26.88;10.63;;;;;;;;;;20993865;28;20055;-59
2022/12/02 18:02:58;;;;;;;29.63;11.93;;;;;;;;;;20992876;28;20052;-59
2022/12/02 18:13:00;;;;;;;9.98;5.13;;;;;;;;;;20993602;28;20105;-59
2022/12/02 18:23:01;;;;;;;7.75;4.50;;;;;;;;;;20993964;28;20496;-65
2022/12/02 18:33:04;;;;;;;6.30;3.85;;;;;;;;;;20997431;28;20057;-61
2022/12/02 18:43:06;;;;;;;6.82;4.03;;;;;;;;;;21005361;28;20419;-57
2022/12/02 18:53:08;;;;;;;9.23;3.85;;;;;;;;;;21008056;28;20135;-58
2022/12/02 19:03:10;;;;;;;9.75;4.70;;;;;;;;;;21006472;28;20048;-66
2022/12/02 19:13:12;;;;;;;6.85;3.97;;;;;;;;;;21005325;28;20055;-67
2022/12/02 19:23:16;;;;;;;6.10;2.88;;;;;;;;;;21005595;28;20169;-66
2022/12/02 19:33:18;;;;;;;7.60;2.60;;;;;;;;;;21003169;28;20424;-61
2022/12/02 19:43:20;;;;;;;5.10;3.00;;;;;;;;;;21002085;28;20131;-59
2022/12/02 19:53:22;;;;;;;9.43;4.70;;;;;;;;;;21002317;28;20054;-58
2022/12/02 20:03:24;;;;;;;4.07;2.90;;;;;;;;;;21002436;28;20416;-60
2022/12/02 20:13:26;;;;;;;9.35;3.35;;;;;;;;;;21000480;28;20139;-58
2022/12/02 20:23:28;;;;;;;6.78;2.90;;;;;;;;;;21000545;28;20132;-61
2022/12/02 20:33:30;;;;;;;4.07;2.50;;;;;;;;;;20998488;28;20057;-59
2022/12/02 20:43:33;;;;;;;5.90;3.45;;;;;;;;;;20998355;28;20044;-61
2022/12/02 20:53:35;;;;;;;5.97;3.22;;;;;;;;;;20997273;28;20048;-57
2022/12/02 21:03:37;;;;;;;4.80;3.20;;;;;;;;;;20997250;28;20495;-59
2022/12/02 21:13:39;;;;;;;5.43;3.60;;;;;;;;;;20996465;28;20055;-60
2022/12/02 21:23:41;;;;;;;8.35;4.13;;;;;;;;;;20996220;28;20044;-63
2022/12/02 21:33:43;;;;;;;7.72;4.18;;;;;;;;;;20995783;28;20056;-60
2022/12/02 21:43:45;;;;;;;9.27;4.28;;;;;;;;;;20994555;28;20063;-59
2022/12/02 21:53:47;;;;;;;6.95;4.82;;;;;;;;;;20995022;28;20140;-63
2022/12/02 22:03:50;;;;;;;9.65;5.13;;;;;;;;;;20994274;28;20118;-59
2022/12/02 22:13:53;;;;;;;7.68;4.72;;;;;;;;;;20996605;28;20074;-59
2022/12/02 22:23:55;;;;;;;12.57;6.80;;;;;;;;;;21010278;28;20055;-59
2022/12/02 22:33:57;;;;;;;9.52;5.00;;;;;;;;;;21008227;28;20061;-60
2022/12/02 22:43:58;;;;;;;12.73;4.78;;;;;;;;;;21007041;28;20148;-62
2022/12/02 22:54:00;;;;;;;8.88;4.25;;;;;;;;;;21006994;28;20048;-60
2022/12/02 23:04:02;;;;;;;8.32;4.90;;;;;;;;;;21006647;28;20135;-59
2022/12/02 23:14:05;;;;;;;9.75;5.65;;;;;;;;;;21005668;28;20079;-59
2022/12/02 23:24:07;;;;;;;12.20;5.57;;;;;;;;;;21005233;28;20124;-62
2022/12/02 23:34:11;;;;;;;9.30;5.13;;;;;;;;;;21003793;28;20052;-59
2022/12/02 23:44:14;;;;;;;11.45;5.28;;;;;;;;;;21002953;28;20055;-59
2022/12/02 23:54:16;;;;;;;9.27;5.50;;;;;;;;;;21003645;28;20525;-60
